Plainville, Illinois
Current Conditions -  °F | °C
As of 5:54 AM on Tuesday 27 Jan 2015 (Local Time) from KUIN Reporting Station
Clear Clear  
Wind Chill: 24°   Ceiling: Unl
Heat Index: 31°   Visibility: 10mi
Dew Point: 28°   Wind: 7mph
Humidity: 89%   Direction: 320°NW
Pressure: 30.04"   Gusts: NA
Location:  39.79°N, 91.19°W
Report Text: KUIN 271154Z AUTO 32006KT 10SM CLR M01/M02 A3004 RMK AO2 SLP180 T10061022 10039 21011 51017
Loading
Personal Weather Stations






























Interactive Weather Map New forecast layout! Learn more

10-Day Weather Forecast

Advertisements
Track Severe Weather on mobile